createdAt,value
2024-05-09T00:00:47.914Z,3.83
2024-05-09T00:03:16.804Z,3.63
2024-05-09T00:05:45.769Z,4.53
2024-05-09T00:08:14.564Z,5.23
2024-05-09T00:10:43.230Z,3.90
2024-05-09T00:13:12.329Z,3.33
2024-05-09T00:15:40.995Z,3.53
2024-05-09T00:18:10.074Z,3.30
2024-05-09T00:20:41.240Z,3.23
2024-05-09T00:23:12.304Z,3.20
2024-05-09T00:25:43.685Z,2.77
2024-05-09T00:28:13.112Z,2.60
2024-05-09T00:30:42.138Z,4.13
2024-05-09T00:33:11.657Z,3.97
2024-05-09T00:35:41.796Z,3.37
2024-05-09T00:38:11.741Z,3.50
2024-05-09T00:40:43.149Z,3.10
2024-05-09T00:43:14.545Z,4.53
2024-05-09T00:45:44.529Z,3.17
2024-05-09T00:48:16.180Z,4.73
2024-05-09T00:50:48.025Z,2.70
2024-05-09T00:53:17.806Z,4.57
2024-05-09T00:55:46.596Z,4.37
2024-05-09T00:58:17.156Z,3.33
2024-05-09T01:00:46.225Z,3.77
2024-05-09T01:03:14.954Z,3.30
2024-05-09T01:05:44.498Z,4.03
2024-05-09T01:08:13.433Z,3.47
2024-05-09T01:10:44.954Z,2.97
2024-05-09T01:13:14.883Z,2.83
2024-05-09T01:15:43.881Z,6.53
2024-05-09T01:18:13.777Z,3.10
2024-05-09T01:20:44.772Z,3.47
2024-05-09T01:23:16.139Z,2.97
2024-05-09T01:25:46.675Z,4.07
2024-05-09T01:28:16.612Z,3.90
2024-05-09T01:30:45.407Z,3.30
2024-05-09T01:33:14.242Z,3.07
2024-05-09T01:35:43.472Z,4.13
2024-05-09T01:38:13.979Z,3.27
2024-05-09T01:40:43.498Z,5.57
2024-05-09T01:43:12.433Z,5.00
2024-05-09T01:45:41.852Z,3.57
2024-05-09T01:48:11.462Z,5.20
2024-05-09T01:50:42.999Z,3.77
2024-05-09T01:53:15.783Z,3.30
2024-05-09T01:55:44.784Z,3.57
2024-05-09T01:58:13.634Z,3.33
2024-05-09T02:00:43.405Z,3.87
2024-05-09T02:03:16.426Z,3.50
2024-05-09T02:05:47.990Z,3.43
2024-05-09T02:08:19.308Z,3.40
2024-05-09T02:10:49.486Z,4.60
2024-05-09T02:13:18.725Z,5.00
2024-05-09T02:15:47.485Z,4.13
2024-05-09T02:18:16.292Z,3.37
2024-05-09T02:20:45.056Z,3.47
2024-05-09T02:23:14.136Z,4.37
2024-05-09T02:25:43.356Z,5.30
2024-05-09T02:28:12.034Z,5.83
2024-05-09T02:30:42.137Z,5.60
2024-05-09T02:33:13.738Z,4.00
2024-05-09T02:35:44.383Z,5.00
2024-05-09T02:38:13.657Z,5.97
2024-05-09T02:40:42.387Z,4.77
2024-05-09T02:43:13.402Z,5.63
2024-05-09T02:45:42.250Z,4.57
2024-05-09T02:48:14.445Z,5.27
2024-05-09T02:50:46.221Z,3.83
2024-05-09T02:53:15.157Z,6.40
2024-05-09T02:55:43.797Z,4.90
2024-05-09T02:58:12.490Z,4.93
2024-05-09T03:00:42.742Z,4.70
2024-05-09T03:03:15.829Z,4.73
2024-05-09T03:05:47.858Z,4.80
2024-05-09T03:08:16.686Z,6.80
2024-05-09T03:10:45.329Z,5.97
2024-05-09T03:13:16.019Z,5.17
2024-05-09T03:15:45.893Z,6.43
2024-05-09T03:18:15.853Z,5.17
2024-05-09T03:20:44.928Z,5.17
2024-05-09T03:23:13.890Z,4.83
2024-05-09T03:25:42.560Z,4.03
2024-05-09T03:28:11.982Z,5.03
2024-05-09T03:30:42.873Z,6.40
2024-05-09T03:33:18.675Z,5.87
2024-05-09T03:35:49.466Z,4.73
2024-05-09T03:38:18.445Z,4.13
2024-05-09T03:40:49.143Z,5.03
2024-05-09T03:43:19.100Z,4.50
2024-05-09T03:45:48.803Z,4.73
2024-05-09T03:48:17.656Z,4.00
2024-05-09T03:50:46.576Z,4.10
2024-05-09T03:53:15.893Z,4.00
2024-05-09T03:55:44.662Z,8.07
2024-05-09T03:58:14.751Z,6.20
2024-05-09T04:00:43.418Z,4.53
2024-05-09T04:03:13.226Z,7.87
2024-05-09T04:05:44.651Z,7.87
2024-05-09T04:08:13.495Z,5.40
2024-05-09T04:10:42.310Z,7.10
2024-05-09T04:13:11.475Z,6.10
2024-05-09T04:15:40.435Z,4.77
2024-05-09T04:18:09.293Z,4.67
2024-05-09T04:20:40.433Z,5.33
2024-05-09T04:23:13.980Z,4.20
2024-05-09T04:25:45.132Z,5.03
2024-05-09T04:28:14.672Z,5.03
2024-05-09T04:30:43.667Z,6.40
2024-05-09T04:33:14.181Z,5.27
2024-05-09T04:35:44.578Z,5.97
2024-05-09T04:38:14.850Z,4.87
2024-05-09T04:40:44.152Z,4.87
2024-05-09T04:43:17.535Z,5.30
2024-05-09T04:45:46.359Z,6.83
2024-05-09T04:48:16.793Z,6.10
2024-05-09T04:50:45.840Z,4.47
2024-05-09T04:53:17.725Z,5.73
2024-05-09T04:55:46.592Z,7.57
2024-05-09T04:58:15.276Z,4.97
2024-05-09T05:00:43.947Z,6.00
2024-05-09T05:03:15.503Z,4.53
2024-05-09T05:05:46.387Z,5.80
2024-05-09T05:08:16.756Z,5.13
2024-05-09T05:10:47.078Z,4.87
2024-05-09T05:13:18.185Z,7.90
2024-05-09T05:15:52.732Z,5.10
2024-05-09T05:18:22.191Z,4.50
2024-05-09T05:20:51.290Z,5.53
2024-05-09T05:23:21.200Z,4.60
2024-05-09T05:25:54.511Z,6.70
2024-05-09T05:28:23.549Z,6.47
2024-05-09T05:30:52.271Z,6.50
2024-05-09T05:33:23.091Z,5.47
2024-05-09T05:35:52.152Z,5.93
2024-05-09T05:38:24.835Z,5.07
2024-05-09T05:40:56.120Z,6.47
2024-05-09T05:43:24.820Z,4.87
2024-05-09T05:45:53.394Z,6.73
2024-05-09T05:48:22.168Z,5.77
2024-05-09T05:50:50.977Z,4.43
2024-05-09T05:53:19.734Z,4.70
2024-05-09T05:55:48.447Z,4.63
2024-05-09T05:58:17.099Z,4.63
2024-05-09T06:00:45.765Z,5.57
2024-05-09T06:03:14.818Z,6.33
2024-05-09T06:05:45.901Z,4.40
2024-05-09T06:08:14.880Z,5.97
2024-05-09T06:10:43.750Z,4.50
2024-05-09T06:13:15.885Z,4.10
2024-05-09T06:15:44.481Z,6.60
2024-05-09T06:18:14.354Z,5.43
2024-05-09T06:20:44.289Z,4.53
2024-05-09T06:23:13.653Z,3.47
2024-05-09T06:25:42.884Z,4.07
2024-05-09T06:28:11.933Z,4.73
2024-05-09T06:30:42.565Z,4.50
2024-05-09T06:33:14.569Z,4.33
2024-05-09T06:35:45.203Z,4.70
2024-05-09T06:38:14.206Z,3.73
2024-05-09T06:40:44.523Z,3.43
2024-05-09T06:43:16.417Z,4.03
2024-05-09T06:45:49.484Z,6.10
2024-05-09T06:48:20.439Z,6.00
2024-05-09T06:50:50.304Z,3.40
2024-05-09T06:53:21.524Z,3.73
2024-05-09T06:55:50.445Z,2.60
2024-05-09T06:58:19.144Z,3.70
2024-05-09T07:00:47.956Z,4.00
2024-05-09T07:03:18.492Z,3.67
2024-05-09T07:05:49.528Z,3.80
2024-05-09T07:08:19.297Z,3.57
2024-05-09T07:10:48.260Z,3.07
2024-05-09T07:13:17.306Z,2.37
2024-05-09T07:15:45.885Z,2.47
2024-05-09T07:18:17.698Z,3.00
2024-05-09T07:20:48.409Z,2.90
2024-05-09T07:23:17.724Z,3.10
2024-05-09T07:25:46.616Z,3.57
2024-05-09T07:28:16.740Z,1.93
2024-05-09T07:30:45.549Z,2.20
2024-05-09T07:33:22.784Z,2.23
2024-05-09T07:35:53.148Z,3.10
2024-05-09T07:38:22.017Z,1.80
2024-05-09T07:40:50.853Z,2.03
2024-05-09T07:43:19.571Z,1.97
2024-05-09T07:45:53.161Z,3.87
2024-05-09T07:52:39.288Z,1.93
2024-05-09T07:53:49.508Z,3.33
2024-05-09T07:56:23.148Z,1.47
2024-05-09T07:58:56.441Z,1.47
2024-05-09T08:01:26.780Z,1.70
2024-05-09T08:03:56.494Z,1.50
2024-05-09T08:06:25.774Z,1.97
2024-05-09T08:08:54.832Z,1.70
2024-05-09T08:11:24.294Z,2.70
2024-05-09T08:13:53.044Z,3.03
2024-05-09T08:16:21.905Z,2.03
2024-05-09T08:18:50.717Z,1.40
2024-05-09T08:21:19.816Z,2.27
2024-05-09T08:23:48.465Z,3.07
2024-05-09T08:26:17.090Z,2.10
2024-05-09T08:28:45.778Z,3.57
2024-05-09T08:31:14.567Z,1.97
2024-05-09T08:33:48.664Z,1.80
2024-05-09T08:36:17.899Z,4.50
2024-05-09T08:38:46.517Z,2.77
2024-05-09T08:41:16.281Z,3.83
2024-05-09T08:43:45.344Z,1.87
2024-05-09T08:46:14.596Z,2.90
2024-05-09T08:48:44.462Z,2.70
2024-05-09T08:51:14.359Z,2.40
2024-05-09T08:53:42.909Z,1.70
2024-05-09T08:56:13.039Z,2.10
2024-05-09T08:58:42.332Z,2.83
2024-05-09T09:01:11.779Z,2.67
2024-05-09T09:03:40.700Z,2.93
2024-05-09T09:06:18.398Z,3.03
2024-05-09T09:08:47.668Z,2.50
2024-05-09T09:11:16.313Z,1.97
2024-05-09T09:13:45.164Z,2.70
2024-05-09T09:16:14.411Z,3.07
2024-05-09T09:18:46.449Z,1.90
2024-05-09T09:21:18.413Z,3.03
2024-05-09T09:23:47.034Z,4.17
2024-05-09T09:26:18.955Z,3.17
2024-05-09T09:28:47.854Z,2.57
2024-05-09T09:31:20.260Z,3.33
2024-05-09T09:33:49.293Z,3.63
2024-05-09T09:36:18.720Z,1.63
2024-05-09T09:38:48.665Z,1.73
2024-05-09T09:41:20.426Z,2.93
2024-05-09T09:43:49.593Z,2.90
2024-05-09T09:46:19.748Z,1.97
2024-05-09T09:48:49.532Z,2.97
2024-05-09T09:51:18.168Z,3.63
2024-05-09T09:53:47.835Z,1.63
2024-05-09T09:56:18.248Z,1.77
2024-05-09T09:58:47.262Z,4.07
2024-05-09T10:01:15.944Z,3.30
2024-05-09T10:03:45.775Z,1.70
2024-05-09T10:06:15.426Z,1.57
2024-05-09T10:08:45.887Z,2.63
2024-05-09T10:11:14.540Z,3.00
2024-05-09T10:13:43.421Z,2.80
2024-05-09T10:16:12.541Z,2.60
2024-05-09T10:18:42.219Z,3.70
2024-05-09T10:21:21.108Z,1.67
2024-05-09T10:24:03.653Z,2.97
2024-05-09T10:26:34.232Z,2.00
2024-05-09T10:29:13.285Z,3.00
2024-05-09T10:31:46.474Z,1.63
2024-05-09T10:34:23.014Z,3.93
2024-05-09T10:36:55.859Z,4.70
2024-05-09T10:39:27.017Z,2.30
2024-05-09T10:41:55.649Z,2.43
2024-05-09T10:44:24.232Z,3.17
2024-05-09T10:46:54.992Z,2.87
2024-05-09T10:49:24.090Z,3.20
2024-05-09T10:51:53.407Z,3.20
2024-05-09T10:54:22.101Z,4.53
2024-05-09T10:56:58.033Z,2.20
2024-05-09T10:59:27.721Z,4.00
2024-05-09T11:01:56.370Z,3.00
2024-05-09T11:04:25.201Z,6.63
2024-05-09T11:06:53.994Z,3.97
2024-05-09T11:09:22.662Z,2.57
2024-05-09T11:11:51.364Z,2.33
2024-05-09T11:14:20.083Z,2.63
2024-05-09T11:16:49.030Z,2.37
2024-05-09T11:19:19.828Z,2.10
2024-05-09T11:21:52.817Z,2.90
2024-05-09T11:24:21.380Z,3.37
2024-05-09T11:26:50.033Z,2.67
2024-05-09T11:29:19.758Z,2.07
2024-05-09T11:31:48.961Z,3.33
2024-05-09T11:34:17.744Z,3.73
2024-05-09T11:36:46.429Z,2.80
2024-05-09T11:39:15.126Z,2.53
2024-05-09T11:41:43.756Z,2.90
2024-05-09T11:44:13.364Z,3.47
2024-05-09T11:46:41.990Z,2.97
2024-05-09T11:49:11.462Z,2.93
2024-05-09T11:51:40.251Z,4.53
2024-05-09T11:54:08.848Z,2.97
2024-05-09T11:56:37.514Z,4.60
2024-05-09T11:59:06.155Z,2.07
2024-05-09T12:01:34.826Z,3.80
2024-05-09T12:04:04.526Z,2.07
2024-05-09T12:06:33.379Z,2.77
2024-05-09T12:09:02.079Z,1.87
2024-05-09T12:11:30.824Z,2.80
2024-05-09T12:13:59.461Z,1.80
2024-05-09T12:16:28.385Z,3.37
2024-05-09T12:18:57.454Z,2.43
2024-05-09T12:21:26.108Z,2.87
2024-05-09T12:23:54.652Z,1.63
2024-05-09T12:26:23.221Z,2.77
2024-05-09T12:28:51.781Z,2.53
2024-05-09T12:31:20.441Z,5.33
2024-05-09T12:33:49.316Z,3.00
2024-05-09T12:36:17.970Z,2.40
2024-05-09T12:38:46.884Z,3.73
2024-05-09T12:41:15.415Z,2.07
2024-05-09T12:43:44.098Z,2.83
2024-05-09T12:46:12.734Z,2.47
2024-05-09T12:48:41.482Z,2.37
2024-05-09T12:51:10.119Z,3.87
2024-05-09T12:53:38.910Z,2.83
2024-05-09T12:56:09.498Z,2.23
2024-05-09T12:58:38.604Z,1.60
2024-05-09T13:01:07.322Z,3.03
2024-05-09T13:03:36.116Z,3.30
2024-05-09T13:06:04.888Z,2.27
2024-05-09T13:08:33.533Z,4.03
2024-05-09T13:11:02.258Z,2.60
2024-05-09T13:13:30.837Z,5.60
2024-05-09T13:15:59.479Z,3.13
2024-05-09T13:18:28.241Z,3.17
2024-05-09T13:20:56.878Z,3.20
2024-05-09T13:23:25.438Z,3.97
2024-05-09T13:25:53.972Z,2.27
2024-05-09T13:28:23.028Z,3.13
2024-05-09T13:30:51.736Z,4.10
2024-05-09T13:33:20.665Z,3.63
2024-05-09T13:35:50.977Z,3.70
2024-05-09T13:38:21.273Z,3.20
2024-05-09T13:40:50.796Z,3.00
2024-05-09T13:43:22.203Z,2.77
2024-05-09T13:45:52.334Z,2.53
2024-05-09T13:48:21.165Z,2.97
2024-05-09T13:50:49.843Z,2.87
2024-05-09T13:53:18.392Z,3.67
2024-05-09T13:55:47.061Z,2.90
2024-05-09T13:58:15.862Z,2.90
2024-05-09T14:00:48.838Z,5.13
2024-05-09T14:03:20.268Z,3.63
2024-05-09T14:05:51.373Z,4.47
2024-05-09T14:08:22.620Z,3.10
2024-05-09T14:10:52.582Z,3.57
2024-05-09T14:13:21.579Z,3.10
2024-05-09T14:15:50.487Z,3.00
2024-05-09T14:18:19.332Z,3.92
2024-05-09T14:20:47.947Z,4.43
2024-05-09T14:23:18.073Z,3.40
2024-05-09T14:25:50.079Z,3.67
2024-05-09T14:28:21.446Z,4.83
2024-05-09T14:30:50.176Z,8.17
2024-05-09T14:33:23.832Z,9.13
2024-05-09T14:35:55.567Z,4.83
2024-05-09T14:38:28.743Z,7.40
2024-05-09T14:40:57.323Z,3.87
2024-05-09T14:43:26.164Z,5.23
2024-05-09T14:45:56.133Z,4.50
2024-05-09T14:48:24.911Z,6.30
2024-05-09T14:50:53.521Z,6.10
2024-05-09T14:53:23.797Z,5.27
2024-05-09T14:55:52.470Z,5.20
2024-05-09T14:58:21.272Z,4.63
2024-05-09T15:00:51.356Z,3.35
2024-05-09T15:03:22.115Z,3.75
2024-05-09T15:05:52.044Z,5.25
2024-05-09T15:08:21.273Z,5.55
2024-05-09T15:10:50.759Z,5.57
2024-05-09T15:13:21.275Z,3.27
2024-05-09T15:15:50.245Z,3.40
2024-05-09T15:18:19.212Z,3.17
2024-05-09T15:20:48.720Z,3.35
2024-05-09T15:23:17.938Z,5.18
2024-05-09T15:25:46.583Z,3.25
2024-05-09T15:28:15.453Z,6.75
2024-05-09T15:30:46.487Z,2.70
2024-05-09T15:33:16.103Z,3.28
2024-05-09T15:35:47.028Z,2.42
2024-05-09T15:38:18.632Z,3.60
2024-05-09T15:40:47.602Z,5.10
2024-05-09T15:43:16.897Z,4.75
2024-05-09T15:45:45.769Z,4.32
2024-05-09T15:48:14.647Z,1.63
2024-05-09T15:50:43.718Z,2.13
2024-05-09T15:53:14.091Z,1.80
2024-05-09T15:55:43.443Z,2.10
2024-05-09T15:58:12.693Z,3.17
2024-05-09T16:00:44.315Z,2.10
2024-05-09T16:03:15.274Z,3.63
2024-05-09T16:05:48.270Z,5.00
2024-05-09T16:08:17.404Z,2.58
2024-05-09T16:10:46.991Z,4.18
2024-05-09T16:13:17.579Z,1.65
2024-05-09T16:15:47.217Z,1.48
2024-05-09T16:18:16.028Z,2.67
2024-05-09T16:20:46.468Z,2.70
2024-05-09T16:23:17.179Z,1.50
2024-05-09T16:25:48.209Z,3.10
2024-05-09T16:28:17.268Z,3.53
2024-05-09T16:30:46.072Z,3.38
2024-05-09T16:33:14.937Z,3.08
2024-05-09T16:35:43.602Z,2.17
2024-05-09T16:38:12.714Z,3.35
2024-05-09T16:40:41.771Z,2.43
2024-05-09T16:43:11.743Z,2.30
2024-05-09T16:45:43.750Z,2.53
2024-05-09T16:48:13.427Z,2.08
2024-05-09T16:50:42.118Z,2.58
2024-05-09T16:53:10.766Z,2.63
2024-05-09T16:55:39.422Z,3.38
2024-05-09T16:58:08.722Z,2.87
2024-05-09T17:00:42.015Z,2.33
2024-05-09T17:03:15.532Z,2.45
2024-05-09T17:05:49.223Z,2.77
2024-05-09T17:08:18.793Z,3.63
2024-05-09T17:10:51.033Z,3.83
2024-05-09T17:13:20.308Z,3.17
2024-05-09T17:15:52.366Z,4.93
2024-05-09T17:18:21.277Z,1.87
2024-05-09T17:20:51.679Z,3.43
2024-05-09T17:23:20.270Z,3.17
2024-05-09T17:25:48.852Z,1.97
2024-05-09T17:28:17.593Z,3.60
2024-05-09T17:30:46.291Z,2.17
2024-05-09T17:33:15.023Z,2.43
2024-05-09T17:35:46.179Z,2.03
2024-05-09T17:38:14.966Z,1.83
2024-05-09T17:40:43.578Z,2.30
2024-05-09T17:43:12.989Z,2.40
2024-05-09T17:45:42.366Z,2.30
2024-05-09T17:48:12.389Z,1.70
2024-05-09T17:50:42.019Z,2.93
2024-05-09T17:53:11.521Z,3.17
2024-05-09T17:55:41.128Z,2.47
2024-05-09T17:58:10.437Z,2.87
2024-05-09T18:00:41.808Z,4.00
2024-05-09T18:03:12.516Z,2.67
2024-05-09T18:05:43.301Z,3.00
2024-05-09T18:08:13.790Z,4.40
2024-05-09T18:10:42.873Z,3.70
2024-05-09T18:13:12.808Z,4.63
2024-05-09T18:15:42.172Z,4.00
2024-05-09T18:18:12.261Z,5.70
2024-05-09T18:20:44.702Z,3.23
2024-05-09T18:23:17.075Z,5.50
2024-05-09T18:25:47.875Z,4.63
2024-05-09T18:28:17.624Z,5.90
2024-05-09T18:30:46.669Z,4.57
2024-05-09T18:33:15.934Z,5.23
2024-05-09T18:35:45.714Z,4.53
2024-05-09T18:38:14.506Z,3.63
2024-05-09T18:40:45.108Z,6.03
2024-05-09T18:43:16.291Z,3.60
2024-05-09T18:45:45.520Z,4.53
2024-05-09T18:48:15.543Z,6.70
2024-05-09T18:50:44.151Z,7.27
2024-05-09T18:53:13.756Z,6.23
2024-05-09T18:55:45.537Z,7.17
2024-05-09T18:58:14.182Z,8.73
2024-05-09T19:00:45.405Z,6.87
2024-05-09T19:03:16.793Z,7.30
2024-05-09T19:05:46.384Z,4.23
2024-05-09T19:08:15.816Z,6.20
2024-05-09T19:10:46.122Z,5.43
2024-05-09T19:13:15.556Z,5.80
2024-05-09T19:15:44.818Z,7.37
2024-05-09T19:18:14.830Z,4.23
2024-05-09T19:20:44.295Z,5.10
2024-05-09T19:23:13.268Z,2.63
2024-05-09T19:25:42.076Z,3.30
2024-05-09T19:28:10.720Z,3.83
2024-05-09T19:30:42.078Z,4.20
2024-05-09T19:33:13.567Z,4.57
2024-05-09T19:35:43.939Z,4.37
2024-05-09T19:38:13.021Z,4.97
2024-05-09T19:40:41.776Z,6.53
2024-05-09T19:43:11.316Z,4.47
2024-05-09T19:45:40.145Z,4.80
2024-05-09T19:48:09.254Z,4.43
2024-05-09T19:50:43.053Z,6.00
2024-05-09T19:53:14.118Z,4.23
2024-05-09T19:55:43.336Z,4.30
2024-05-09T19:58:13.040Z,3.60
2024-05-09T20:00:43.725Z,6.43
2024-05-09T20:03:15.302Z,7.03
2024-05-09T20:05:47.141Z,5.90
2024-05-09T20:08:16.282Z,6.13
2024-05-09T20:10:45.172Z,4.10
2024-05-09T20:13:15.378Z,3.93
2024-05-09T20:15:44.135Z,3.80
2024-05-09T20:18:13.358Z,5.20
2024-05-09T20:20:44.069Z,5.70
2024-05-09T20:23:14.455Z,2.97
2024-05-09T20:25:44.264Z,4.97
2024-05-09T20:28:13.276Z,4.60
2024-05-09T20:30:42.078Z,5.93
2024-05-09T20:33:12.146Z,4.63
2024-05-09T20:35:41.482Z,6.30
2024-05-09T20:38:10.026Z,6.57
2024-05-09T20:40:39.785Z,6.03
2024-05-09T20:43:12.153Z,5.50
2024-05-09T20:45:41.137Z,4.63
2024-05-09T20:48:10.373Z,5.60
2024-05-09T20:50:41.740Z,5.70
2024-05-09T20:53:13.850Z,7.37
2024-05-09T20:55:44.886Z,9.87
2024-05-09T20:58:14.203Z,6.50
2024-05-09T21:00:45.811Z,4.67
2024-05-09T21:03:17.333Z,5.77
2024-05-09T21:05:47.269Z,10.27
2024-05-09T21:08:16.559Z,32.40
2024-05-09T21:10:45.280Z,25.27
2024-05-09T21:13:14.009Z,21.97
2024-05-09T21:15:42.750Z,18.03
2024-05-09T21:18:11.535Z,9.00
2024-05-09T21:20:40.781Z,8.53
2024-05-09T21:23:09.702Z,8.63
2024-05-09T21:25:38.395Z,8.10
2024-05-09T21:28:07.331Z,7.87
2024-05-09T21:30:41.583Z,10.27
2024-05-09T21:33:14.105Z,7.80
2024-05-09T21:35:45.058Z,8.17
2024-05-09T21:38:14.942Z,8.90
2024-05-09T21:40:46.997Z,8.30
2024-05-09T21:43:15.777Z,9.03
2024-05-09T21:45:45.019Z,9.47
2024-05-09T21:48:14.838Z,8.57
2024-05-09T21:50:43.501Z,10.03
2024-05-09T21:53:13.511Z,9.37
2024-05-09T21:55:43.324Z,8.73
2024-05-09T21:58:14.883Z,8.47
2024-05-09T22:00:46.503Z,8.17
2024-05-09T22:03:15.681Z,6.90
2024-05-09T22:05:45.270Z,7.47
2024-05-09T22:08:14.158Z,9.20
2024-05-09T22:10:46.145Z,7.87
2024-05-09T22:13:17.055Z,9.83
2024-05-09T22:15:45.807Z,9.43
2024-05-09T22:18:14.936Z,9.40
2024-05-09T22:20:45.782Z,7.90
2024-05-09T22:23:30.569Z,8.03
2024-05-09T22:25:59.212Z,6.97
2024-05-09T22:28:27.835Z,8.00
2024-05-09T22:30:56.542Z,6.83
2024-05-09T22:33:25.306Z,7.27
2024-05-09T22:35:53.962Z,6.50
2024-05-09T22:38:22.588Z,8.00
2024-05-09T22:40:52.380Z,7.90
2024-05-09T22:43:23.879Z,8.80
2024-05-09T22:45:56.910Z,7.57
2024-05-09T22:48:26.419Z,8.00
2024-05-09T22:50:55.751Z,8.87
2024-05-09T22:53:26.720Z,7.63
2024-05-09T22:55:55.366Z,8.70
2024-05-09T22:58:24.590Z,9.43
2024-05-09T23:00:53.521Z,8.47
2024-05-09T23:03:23.137Z,10.03
2024-05-09T23:05:53.514Z,8.27
2024-05-09T23:08:22.294Z,9.43
2024-05-09T23:10:51.259Z,8.67
2024-05-09T23:13:20.390Z,7.40
2024-05-09T23:15:49.731Z,8.43
2024-05-09T23:18:18.496Z,11.77
2024-05-09T23:20:47.155Z,10.20
2024-05-09T23:23:15.763Z,8.63
2024-05-09T23:25:44.942Z,9.23
2024-05-09T23:28:13.964Z,9.07
2024-05-09T23:30:42.859Z,7.57
2024-05-09T23:33:13.619Z,9.13
2024-05-09T23:35:44.537Z,8.43
2024-05-09T23:38:13.848Z,10.30
2024-05-09T23:40:43.234Z,8.33
2024-05-09T23:43:13.231Z,7.67
2024-05-09T23:45:43.309Z,8.20
2024-05-09T23:48:12.268Z,8.17
2024-05-09T23:50:41.494Z,55.90
2024-05-09T23:53:11.148Z,60.93
2024-05-09T23:55:40.378Z,33.00
2024-05-09T23:58:09.663Z,36.20
